Flight Track Log - Related Links

Times and Time Zones

All times are in EDT time to prevent confusion due to time zone crossing. See the SKW4473 flight status page for this flight to view local times or setup timezone preferences in your user account.

Time Position Orientation Groundspeed Altitude Reporting Facility
EDT Latitude Longitude Course Direction KTS MPH feet Rate Location/Type
Fri 01:13:21 PM 40.7692 -111.9978 50° Northeast 185 213 5,000  Level Salt Lake Center
Fri 01:14:34 PM 40.7567 -112.0756 258° West 231 266 7,600 1,831 Climbing Salt Lake Center
Fri 01:15:19 PM 40.7908 -112.1111 322° Northwest 258 297 8,600 1,967 Climbing Salt Lake Center
Fri 01:15:35 PM 40.8181 -112.1369 324° Northwest 281 323 9,600 2,516 Climbing Salt Lake Center
Fri 01:16:00 PM 41.0144 -112.1181 81° East  Level FlightAware Approximate
Fri 01:16:21 PM 40.8658 -112.1347 North 289 333 11,200  Level Salt Lake Center
Fri 01:17:00 PM 41.0878 -112.0096 50° Northeast  Level FlightAware Approximate
Fri 01:17:22 PM 40.9572 -112.1336 North 326 375 12,900  Level Salt Lake Center
Fri 01:18:00 PM 41.1661 -111.8867 50° Northeast  Level FlightAware Approximate
Fri 01:18:24 PM 41.0461 -112.1314 North 313 360 16,100  Level Salt Lake Center
Fri 01:19:26 PM 41.1508 -112.1289 North 310 357 18,200 1,902 Climbing Salt Lake Center
Fri 01:20:27 PM 41.2419 -112.1272 North 325 374 20,000 1,610 Climbing Salt Lake Center
Fri 01:21:29 PM 41.3344 -112.1244 North 330 380 21,500 1,452 Climbing Salt Lake Center
Fri 01:22:31 PM 41.4283 -112.1219 North 336 387 23,000 1,452 Climbing Salt Lake Center
Fri 01:23:33 PM 41.5231 -112.1194 North 338 389 24,500 1,268 Climbing Salt Lake Center
Fri 01:24:34 PM 41.6172 -112.1178 North 340 391 25,600 829 Climbing Salt Lake Center
Fri 01:25:36 PM 41.7156 -112.1156 North 353 406 26,200 629 Climbing Salt Lake Center
Fri 01:26:38 PM 41.8183 -112.1119 North 368 423 26,900 968 Climbing Salt Lake Center
Fri 01:27:40 PM 41.9450 -112.1089 North 378 435 28,200 1,306 Climbing Salt Lake Center
Fri 01:28:42 PM 42.0467 -112.1061 North 367 422 29,600 1,161 Climbing Salt Lake Center
Fri 01:29:44 PM 42.1458 -112.1033 North 357 411 30,600 732 Climbing Salt Lake Center
Fri 01:30:45 PM 42.2458 -112.1025 360° North 360 414 31,100 488 Climbing Salt Lake Center
Fri 01:31:47 PM 42.3492 -112.0989 North 371 427 31,600 435 Climbing Salt Lake Center
Fri 01:32:49 PM 42.4544 -112.0964 North 377 434 32,000 194 Climbing Salt Lake Center
Fri 01:33:51 PM 42.5853 -112.0922 North 392 451 32,000  Level Salt Lake Center
Fri 01:34:53 PM 42.6964 -112.0894 North 399 459 32,000  Level Salt Lake Center
Fri 01:35:55 PM 42.8136 -112.0856 North 396 456 32,000  Level Salt Lake Center
Fri 01:36:57 PM 42.9175 -112.0836 North 389 448 32,000  Level Salt Lake Center
Fri 01:37:59 PM 43.0189 -112.0814 North 380 437 32,000  Level Salt Lake Center
Fri 01:39:01 PM 43.1356 -112.0778 North 377 434 32,000  Level Salt Lake Center
Fri 01:40:03 PM 43.2358 -112.0747 North 375 432 32,000  Level Salt Lake Center
Fri 01:41:05 PM 43.3508 -112.0733 North 370 426 32,000  Level Salt Lake Center
Fri 01:42:07 PM 43.4506 -112.0692 North 374 430 32,000  Level Salt Lake Center
Fri 01:43:09 PM 43.5708 -112.0675 North 385 443 32,000  Level Salt Lake Center
Fri 01:44:11 PM 43.6769 -112.0639 North 395 455 32,000  Level Salt Lake Center
Fri 01:45:13 PM 43.8028 -112.0606 North 402 463 32,000  Level Salt Lake Center
Fri 01:46:15 PM 43.9111 -112.0564 North 406 467 32,000  Level Salt Lake Center
Fri 01:47:17 PM 44.0344 -112.0536 North 399 459 32,000  Level Salt Lake Center
Fri 01:48:19 PM 44.1397 -112.0522 North 396 456 32,000  Level Salt Lake Center
Fri 01:49:21 PM 44.2394 -112.0494 North 379 436 32,000  Level Salt Lake Center
Fri 01:50:23 PM 44.3553 -112.0450 North 372 428 32,000  Level Salt Lake Center
Fri 01:51:25 PM 44.4558 -112.0433 North 373 429 32,000  Level Salt Lake Center
Fri 01:52:27 PM 44.5761 -112.0392 North 382 440 32,000  Level Salt Lake Center
Fri 01:53:29 PM 44.6800 -112.0378 North 387 445 32,000  Level Salt Lake Center
Fri 01:54:31 PM 44.8025 -112.0336 North 392 451 32,000  Level Salt Lake Center
Fri 01:55:33 PM 44.9086 -112.0300 North 396 456 32,000  Level Salt Lake Center
Fri 01:56:35 PM 45.0331 -112.0267 North 399 459 32,000  Level Salt Lake Center
Fri 01:57:37 PM 45.1389 -112.0242 North 401 461 32,000 -97 Level Salt Lake Center
Fri 01:58:39 PM 45.2517 -112.0208 North 404 465 31,800 -1,355 Descending Salt Lake Center
Fri 01:59:41 PM 45.3625 -112.0178 North 400 460 29,200 -2,419 Descending Salt Lake Center
Fri 02:00:43 PM 45.4719 -112.0161 North 392 451 26,800 -2,419 Descending Salt Lake Center
Fri 02:01:45 PM 45.5747 -112.0122 North 373 429 24,200 -2,710 Descending Salt Lake Center
Fri 02:02:47 PM 45.6967 -112.0092 North 365 420 21,200 -2,592 Descending Salt Lake Center
Fri 02:03:50 PM 45.7969 -112.0056 North 359 413 18,800 -2,016 Descending Salt Lake Center
Fri 02:04:52 PM 45.8911 -112.0019 North 340 391 17,000 -1,839 Descending Salt Lake Center
Fri 02:05:54 PM 45.9803 -112.0008 360° North 323 372 15,000 -1,452 Descending Salt Lake Center
Fri 02:06:56 PM 46.0678 -111.9978 North 316 364 14,000 -484 Descending Salt Lake Center
Fri 02:07:58 PM 46.1522 -111.9961 North 304 350 14,000 48 Level Salt Lake Center
Fri 02:09:00 PM 46.2383 -111.9808 North 310 357 14,100 -823 Climbing Salt Lake Center
Fri 02:10:02 PM 46.3342 -111.9269 21° North 308 354 12,300 -1,742 Descending Salt Lake Center

Login

Don't have an account? Register now (free) for customized features, flight alerts, and more!